Time;durP1;ratioP1;P1;durP2;ratioP2;P2;SDS_P1;SDS_P2;PMS_P1;PMS_P2;Temp;Humidity;BMP_temperature;BMP_pressure;BME280_temperature;BME280_humidity;BME280_pressure;Samples;Min_cycle;Max_cycle;Signal;HPM_P1;HPM_P2
2023/01/31 00:01:32;;;;;;;4.10;2.70;;;;;;;3.13;100.00;-23903.44;5015548;28;20180;-73
2023/01/31 00:04:00;;;;;;;8.83;3.13;;;;;;;2.62;100.00;-23889.31;5015541;28;20219;-73
2023/01/31 00:06:34;;;;;;;3.87;2.70;;;;;;;3.08;100.00;-23902.28;5015568;28;20172;-72
2023/01/31 00:09:00;;;;;;;7.13;2.97;;;;;;;2.69;100.00;-23891.16;5015702;28;20168;-76
2023/01/31 00:11:28;;;;;;;6.90;3.23;;;;;;;3.15;100.00;-23904.13;5015357;28;20179;-73
2023/01/31 00:13:54;;;;;;;4.43;3.03;;;;;;;3.17;100.00;-23904.56;5015304;28;20220;-75
2023/01/31 00:16:21;;;;;;;3.37;2.47;;;;;;;2.85;100.00;-23895.59;5015414;28;20179;-72
2023/01/31 00:18:46;;;;;;;4.97;3.43;;;;;;;2.90;100.00;-23897.00;5015241;28;20758;-73
2023/01/31 00:21:18;;;;;;;5.70;2.80;;;;;;;3.31;100.00;-23908.56;5014133;28;20207;-72
2023/01/31 00:23:44;;;;;;;5.00;2.73;;;;;;;3.17;100.00;-23904.72;5015164;28;20210;-70
2023/01/31 00:26:14;;;;;;;2.77;2.53;;;;;;;3.08;100.00;-23902.28;5015469;28;20183;-73
2023/01/31 00:28:41;;;;;;;8.27;3.43;;;;;;;3.18;100.00;-23904.84;5014823;28;20176;-74
2023/01/31 00:31:07;;;;;;;5.03;2.50;;;;;;;2.74;100.00;-23892.44;5015293;28;20184;-73
2023/01/31 00:33:36;;;;;;;5.80;2.97;;;;;;;2.87;100.00;-23896.16;5015039;28;20179;-73
2023/01/31 00:36:07;;;;;;;5.53;2.63;;;;;;;2.96;100.00;-23898.72;5015024;28;20176;-73
2023/01/31 00:38:33;;;;;;;6.17;3.13;;;;;;;3.12;100.00;-23903.28;5014949;28;20250;-72
2023/01/31 00:40:58;;;;;;;7.73;2.47;;;;;;;3.17;100.00;-23904.72;5015016;28;20215;-75
2023/01/31 00:43:24;;;;;;;7.57;2.40;;;;;;;2.77;100.00;-23893.44;5014803;28;20215;-72
2023/01/31 00:45:49;;;;;;;9.20;2.87;;;;;;;3.07;100.00;-23902.00;5015167;28;20176;-74
2023/01/31 00:48:15;;;;;;;5.93;2.50;;;;;;;2.59;100.00;-23888.31;5015091;28;20184;-73
2023/01/31 00:50:40;;;;;;;3.80;2.60;;;;;;;2.93;100.00;-23898.00;5014823;28;20172;-73
2023/01/31 00:53:06;;;;;;;6.43;3.23;;;;;;;3.10;100.00;-23902.84;5014172;28;20265;-74
2023/01/31 00:55:31;;;;;;;2.30;2.10;;;;;;;3.24;100.00;-23906.72;5014267;28;20176;-73
2023/01/31 00:57:57;;;;;;;5.57;3.30;;;;;;;3.01;100.00;-23900.28;5014526;28;20247;-73
2023/01/31 01:00:22;;;;;;;2.27;2.07;;;;;;;3.28;100.00;-23907.84;5014648;28;20562;-72
2023/01/31 01:02:48;;;;;;;7.00;2.47;;;;;;;3.31;100.00;-23908.72;5014785;28;20223;-73
2023/01/31 01:05:13;;;;;;;4.03;2.90;;;;;;;3.50;100.00;-23914.13;5013408;28;20636;-71
2023/01/31 01:07:39;;;;;;;4.37;2.87;;;;;;;3.20;99.96;-23905.56;5014731;28;20191;-71
2023/01/31 01:10:05;;;;;;;3.97;2.20;;;;;;;3.21;100.00;-23905.72;5014506;28;20176;-72
2023/01/31 01:12:30;;;;;;;6.90;2.67;;;;;;;3.74;100.00;-23920.69;5014246;28;20219;-72
2023/01/31 01:14:56;;;;;;;3.80;2.37;;;;;;;3.16;100.00;-23904.44;5014509;28;20224;-72
2023/01/31 01:17:21;;;;;;;5.53;2.40;;;;;;;3.18;100.00;-23905.00;5014020;28;20176;-73
2023/01/31 01:19:47;;;;;;;2.90;2.60;;;;;;;3.52;100.00;-23914.69;5014194;28;20190;-72
2023/01/31 01:22:15;;;;;;;4.67;2.57;;;;;;;3.07;100.00;-23901.84;5014259;28;20223;-73
2023/01/31 01:24:44;;;;;;;6.77;3.30;;;;;;;3.41;100.00;-23911.56;5013961;28;20176;-72
2023/01/31 01:27:10;;;;;;;12.53;2.20;;;;;;;3.23;100.00;-23906.28;5013759;28;20186;-72
2023/01/31 01:29:36;;;;;;;5.00;2.70;;;;;;;3.22;100.00;-23906.13;5013753;28;20180;-71
2023/01/31 01:32:02;;;;;;;5.17;3.10;;;;;;;3.18;100.00;-23905.00;5013829;28;20180;-73
2023/01/31 01:34:27;;;;;;;3.60;2.73;;;;;;;3.27;100.00;-23907.56;5013956;28;20180;-72
2023/01/31 01:36:53;;;;;;;4.67;2.63;;;;;;;3.04;100.00;-23901.00;5013913;28;20285;-74
2023/01/31 01:39:19;;;;;;;3.97;2.60;;;;;;;3.26;100.00;-23907.13;5013559;28;20222;-72
2023/01/31 01:41:45;;;;;;;6.93;2.43;;;;;;;2.90;100.00;-23897.00;5013709;28;20183;-74
2023/01/31 01:44:41;;;;;;;2.20;2.00;;;;;;;3.42;100.00;-23911.69;5013834;28;20222;-72
2023/01/31 01:47:12;;;;;;;3.70;2.60;;;;;;;3.43;100.00;-23912.13;5013658;28;20251;-72
2023/01/31 01:49:38;;;;;;;2.63;2.17;;;;;;;3.52;100.00;-23914.53;5013420;28;20705;-71
2023/01/31 01:52:07;;;;;;;3.57;2.00;;;;;;;3.38;100.00;-23910.69;5013280;28;20168;-72
2023/01/31 01:55:04;;;;;;;3.60;2.30;;;;;;;3.58;100.00;-23916.13;5013695;28;20271;-72
2023/01/31 01:57:36;;;;;;;2.33;1.90;;;;;;;3.32;100.00;-23909.00;5001852;28;20665;-74
2023/01/31 02:00:07;;;;;;;2.97;1.77;;;;;;;3.34;100.00;-23909.41;5012930;28;20283;-72
2023/01/31 02:02:33;;;;;;;2.20;2.00;;;;;;;3.80;100.00;-23922.38;5013706;28;20172;-73
2023/01/31 02:04:59;;;;;;;1.77;1.67;;;;;;;3.69;100.00;-23919.41;5012212;28;20266;-72
2023/01/31 02:07:25;;;;;;;2.13;1.93;;;;;;;3.54;100.00;-23915.25;5013364;28;20549;-75
2023/01/31 02:09:59;;;;;;;3.10;2.07;;;;;;;3.40;100.00;-23911.28;5013064;28;20176;-72
2023/01/31 02:12:24;;;;;;;3.63;2.13;;;;;;;3.13;100.00;-23903.56;5013314;28;20247;-73
2023/01/31 02:14:51;;;;;;;3.10;2.17;;;;;;;3.02;100.00;-23900.44;5012788;28;20655;-72
2023/01/31 02:17:18;;;;;;;2.80;2.03;;;;;;;3.42;100.00;-23911.84;5011805;28;20666;-71
2023/01/31 02:20:00;;;;;;;2.83;1.90;;;;;;;3.85;100.00;-23923.94;5013258;28;20187;-74
2023/01/31 02:22:37;;;;;;;2.27;1.80;;;;;;;3.50;100.00;-23914.13;5013210;28;20160;-71
2023/01/31 02:25:40;;;;;;;1.70;1.60;;;;;;;3.87;100.00;-23924.38;5013139;28;20171;-72
2023/01/31 02:28:11;;;;;;;2.30;1.77;;;;;;;3.90;100.00;-23925.38;5012856;28;20187;-73
2023/01/31 02:31:04;;;;;;;3.83;2.63;;;;;;;3.88;100.00;-23924.81;5012917;28;20181;-74
2023/01/31 02:34:14;;;;;;;2.00;1.70;;;;;;;3.79;100.00;-23922.25;5012822;28;20179;-72
2023/01/31 02:37:06;;;;;;;1.73;1.40;;;;;;;3.88;100.00;-23924.66;5012863;28;20176;-72
2023/01/31 02:40:15;;;;;;;2.20;1.63;;;;;;;3.87;100.00;-23924.53;5012768;28;20231;-72
2023/01/31 02:43:04;;;;;;;1.77;1.60;;;;;;;3.62;100.00;-23917.25;5012234;28;20670;-74
2023/01/31 02:45:29;;;;;;;2.60;1.67;;;;;;;3.95;100.00;-23926.81;5012799;28;20634;-72
2023/01/31 02:48:18;;;;;;;1.87;1.53;;;;;;;4.03;100.00;-23928.94;5012506;28;20210;-71
2023/01/31 02:50:53;;;;;;;2.20;2.00;;;;;;;4.15;100.00;-23932.22;5012655;28;20176;-73
2023/01/31 02:53:33;;;;;;;1.27;1.23;;;;;;;4.31;100.00;-23936.78;5012752;28;20176;-72
2023/01/31 02:56:23;;;;;;;1.77;1.50;;;;;;;4.39;100.00;-23939.06;5012458;28;20204;-71
2023/01/31 02:59:03;;;;;;;3.10;1.97;;;;;;;4.41;100.00;-23939.75;5012331;28;20286;-73
2023/01/31 03:01:32;;;;;;;1.97;1.40;;;;;;;4.36;100.00;-23938.19;5012748;28;20643;-71
2023/01/31 03:04:03;;;;;;;3.53;1.83;;;;;;;4.01;100.00;-23928.38;5012337;28;20176;-73
2023/01/31 03:06:34;;;;;;;2.77;1.73;;;;;;;4.35;100.00;-23938.06;5012918;28;20313;-72
2023/01/31 03:09:27;;;;;;;1.87;1.50;;;;;;;4.48;100.00;-23941.47;5012342;28;20164;-71
2023/01/31 03:12:03;;;;;;;9.27;1.67;;;;;;;4.49;100.00;-23941.75;5012445;28;20216;-74
2023/01/31 03:15:00;;;;;;;1.97;1.20;;;;;;;4.53;100.00;-23942.91;5012338;28;20160;-75
2023/01/31 03:17:47;;;;;;;1.83;1.30;;;;;;;4.29;98.60;-23936.19;5010910;28;20230;-75
2023/01/31 03:20:24;;;;;;;2.03;1.80;;;;;;;4.28;94.99;-23935.91;5011199;28;20207;-74
2023/01/31 03:23:00;;;;;;;1.70;1.60;;;;;;;4.54;93.00;-23943.19;5012341;28;20218;-73
2023/01/31 03:25:29;;;;;;;2.90;1.80;;;;;;;4.24;93.11;-23934.91;5012033;28;20265;-73
2023/01/31 03:27:58;;;;;;;1.93;1.70;;;;;;;4.68;93.32;-23947.31;5013243;28;20667;-73
2023/01/31 03:30:35;;;;;;;1.60;1.50;;;;;;;4.44;93.75;-23940.63;5018634;28;20180;-73
2023/01/31 03:33:12;;;;;;;2.80;1.50;;;;;;;4.19;94.71;-23933.50;5011851;28;20615;-73
2023/01/31 03:35:41;;;;;;;3.40;2.30;;;;;;;4.23;96.26;-23934.50;5011830;28;20540;-73
2023/01/31 03:38:24;;;;;;;2.03;1.70;;;;;;;3.95;97.61;-23926.81;5011763;28;20207;-72
2023/01/31 03:41:28;;;;;;;1.43;1.33;;;;;;;4.40;96.33;-23939.34;5012446;28;20303;-73
2023/01/31 03:44:30;;;;;;;4.00;1.57;;;;;;;4.08;95.42;-23930.22;5011043;28;20187;-73
2023/01/31 03:47:06;;;;;;;2.57;1.83;;;;;;;3.94;93.99;-23926.53;5012322;28;20159;-72
2023/01/31 03:49:33;;;;;;;1.93;1.73;;;;;;;4.03;93.10;-23928.94;5012015;28;20263;-73
2023/01/31 03:52:07;;;;;;;3.23;1.60;;;;;;;3.97;92.03;-23927.38;5012047;28;20160;-71
2023/01/31 03:54:43;;;;;;;3.97;2.33;;;;;;;3.81;92.42;-23922.66;5011726;28;20168;-74
2023/01/31 03:57:22;;;;;;;5.03;2.07;;;;;;;4.24;91.65;-23934.91;5011983;28;20233;-73
2023/01/31 03:59:54;;;;;;;3.80;1.70;;;;;;;4.22;88.91;-23934.22;5011684;28;20180;-73
2023/01/31 04:02:24;;;;;;;4.00;1.90;;;;;;;3.72;87.01;-23920.09;5011675;28;20168;-73
2023/01/31 04:04:57;;;;;;;3.13;2.50;;;;;;;4.10;86.12;-23930.94;5011753;28;20735;-72
2023/01/31 04:07:23;;;;;;;2.47;2.00;;;;;;;3.78;84.91;-23921.97;5011793;28;20226;-72
2023/01/31 04:09:49;;;;;;;2.77;2.23;;;;;;;3.82;84.92;-23922.97;5010717;28;20176;-73
2023/01/31 04:12:14;;;;;;;2.73;2.17;;;;;;;4.18;85.50;-23933.22;5011427;28;20220;-72
2023/01/31 04:14:41;;;;;;;3.67;2.17;;;;;;;3.74;85.89;-23920.81;5011765;28;20710;-73
2023/01/31 04:17:06;;;;;;;5.67;2.73;;;;;;;4.15;87.49;-23932.22;5011554;28;20180;-73
2023/01/31 04:19:31;;;;;;;3.50;2.40;;;;;;;4.01;88.03;-23928.38;5011201;28;20264;-73
2023/01/31 04:21:57;;;;;;;2.23;1.93;;;;;;;3.81;89.18;-23922.66;5011588;28;20180;-72
2023/01/31 04:24:23;;;;;;;3.90;2.37;;;;;;;3.82;88.28;-23922.97;5011554;28;20187;-72
2023/01/31 04:26:49;;;;;;;4.07;2.20;;;;;;;4.01;86.97;-23928.38;5011612;28;20175;-71
2023/01/31 04:29:14;;;;;;;5.53;2.47;;;;;;;3.96;88.57;-23926.94;5015229;28;20168;-72
2023/01/31 04:31:40;;;;;;;4.20;2.63;;;;;;;3.54;89.56;-23915.13;5014936;28;20168;-72
2023/01/31 04:34:06;;;;;;;2.17;1.90;;;;;;;3.97;90.52;-23927.22;5015046;28;20175;-73
2023/01/31 04:36:31;;;;;;;5.63;3.20;;;;;;;3.56;91.30;-23915.81;5014963;28;20719;-73
2023/01/31 04:38:56;;;;;;;4.60;3.23;;;;;;;3.55;92.62;-23915.53;5014977;28;20200;-73
2023/01/31 04:41:22;;;;;;;3.43;2.63;;;;;;;3.50;93.56;-23914.13;5014884;28;20186;-73
2023/01/31 04:43:47;;;;;;;2.60;1.97;;;;;;;3.39;92.70;-23910.97;5014859;28;20172;-73
2023/01/31 04:46:13;;;;;;;3.20;2.57;;;;;;;3.56;94.73;-23915.81;5014865;28;20261;-72
2023/01/31 04:48:40;;;;;;;4.07;2.47;;;;;;;3.31;93.99;-23908.72;5014783;28;20639;-71
2023/01/31 04:51:06;;;;;;;3.83;2.47;;;;;;;3.18;94.54;-23905.00;5014572;28;20179;-73
2023/01/31 04:53:31;;;;;;;3.37;2.33;;;;;;;3.22;96.16;-23906.00;5014911;28;20180;-74
2023/01/31 04:55:56;;;;;;;3.73;2.57;;;;;;;3.71;95.56;-23919.81;5014884;28;20183;-73
2023/01/31 04:58:22;;;;;;;5.93;3.17;;;;;;;3.31;95.99;-23908.56;5014498;28;20227;-72
2023/01/31 05:00:47;;;;;;;2.27;2.07;;;;;;;3.06;96.67;-23901.56;5014589;28;20215;-71
2023/01/31 05:03:12;;;;;;;2.53;1.80;;;;;;;3.50;97.19;-23913.97;5014528;28;20169;-72
2023/01/31 05:05:38;;;;;;;3.63;2.67;;;;;;;3.53;96.67;-23914.97;5014476;28;20216;-73
2023/01/31 05:08:04;;;;;;;3.07;2.10;;;;;;;3.48;97.11;-23913.56;5014763;28;20223;-74
2023/01/31 05:10:30;;;;;;;5.63;2.57;;;;;;;3.42;97.07;-23911.84;5014402;28;20552;-72
2023/01/31 05:12:55;;;;;;;3.20;2.90;;;;;;;3.02;97.79;-23900.56;5014440;28;20645;-73
2023/01/31 05:15:21;;;;;;;4.13;2.30;;;;;;;3.31;98.95;-23908.56;5013025;28;20261;-75
2023/01/31 05:18:01;;;;;;;7.30;2.57;;;;;;;3.15;99.92;-23904.13;5011500;28;20761;-74
2023/01/31 05:20:35;;;;;;;8.47;2.63;;;;;;;2.86;100.00;-23895.88;5011030;28;20599;-72
2023/01/31 05:23:01;;;;;;;3.77;2.83;;;;;;;2.97;100.00;-23899.16;5011797;28;20574;-71
2023/01/31 05:25:27;;;;;;;3.20;2.80;;;;;;;2.82;100.00;-23894.88;5012319;28;20180;-71
2023/01/31 05:27:53;;;;;;;2.87;2.27;;;;;;;2.67;100.00;-23890.59;5011871;28;20562;-74
2023/01/31 05:30:19;;;;;;;2.10;1.87;;;;;;;2.80;100.00;-23894.16;5012567;28;20195;-72
2023/01/31 05:32:47;;;;;;;1.90;1.77;;;;;;;2.96;100.00;-23898.88;5011987;28;20640;-75
2023/01/31 05:35:13;;;;;;;3.60;2.43;;;;;;;3.20;100.00;-23905.56;5011791;28;20180;-75
2023/01/31 05:37:41;;;;;;;3.43;2.80;;;;;;;2.82;100.00;-23894.72;5012294;28;20191;-73
2023/01/31 05:40:12;;;;;;;5.17;2.43;;;;;;;3.14;100.00;-23903.84;5011839;28;20192;-74
2023/01/31 05:42:38;;;;;;;3.43;1.93;;;;;;;3.14;100.00;-23903.84;5012445;28;20191;-73
2023/01/31 05:45:04;;;;;;;2.27;1.80;;;;;;;2.94;100.00;-23898.16;5011220;28;20188;-75
2023/01/31 05:47:29;;;;;;;2.60;2.40;;;;;;;2.62;100.00;-23889.16;5012001;28;20207;-73
2023/01/31 05:49:55;;;;;;;3.70;2.03;;;;;;;3.15;100.00;-23904.13;5011651;28;20636;-72
2023/01/31 05:52:20;;;;;;;2.07;1.90;;;;;;;3.06;100.00;-23901.72;5012446;28;20195;-73
2023/01/31 05:54:45;;;;;;;2.93;2.50;;;;;;;2.73;100.00;-23892.16;5011181;28;20199;-73
2023/01/31 05:57:13;;;;;;;3.23;2.20;;;;;;;3.17;100.00;-23904.72;5012000;28;20195;-73
2023/01/31 05:59:38;;;;;;;2.13;2.03;;;;;;;2.76;100.00;-23893.16;5011533;28;20302;-74
2023/01/31 06:02:04;;;;;;;5.10;2.73;;;;;;;2.57;100.00;-23887.72;5021487;28;20270;-73
2023/01/31 06:04:29;;;;;;;3.63;2.10;;;;;;;2.72;100.00;-23891.88;5018594;28;20179;-72
2023/01/31 06:06:55;;;;;;;4.53;2.43;;;;;;;2.58;100.00;-23888.16;5015210;28;20184;-71
2023/01/31 06:09:20;;;;;;;7.23;2.80;;;;;;;2.48;100.00;-23885.16;5011802;28;20263;-73
2023/01/31 06:11:46;;;;;;;2.90;2.17;;;;;;;2.87;100.00;-23896.16;5011337;28;20258;-74
2023/01/31 06:14:11;;;;;;;3.93;2.23;;;;;;;2.76;100.00;-23893.16;5019329;28;20191;-70
2023/01/31 06:16:37;;;;;;;6.23;2.50;;;;;;;2.82;100.00;-23894.88;5011257;28;20274;-74
2023/01/31 06:19:02;;;;;;;4.57;2.83;;;;;;;2.52;100.00;-23886.44;5011125;28;20208;-72
2023/01/31 06:21:28;;;;;;;2.00;1.80;;;;;;;2.51;100.00;-23886.16;5010575;28;20267;-74
2023/01/31 06:23:53;;;;;;;2.50;2.20;;;;;;;3.14;100.00;-23903.84;5019666;28;20187;-71
2023/01/31 06:26:18;;;;;;;3.77;2.00;;;;;;;3.23;100.00;-23906.28;5022141;28;20655;-74
2023/01/31 06:28:44;;;;;;;4.67;2.57;;;;;;;3.29;100.00;-23908.00;5032858;28;20191;-74
2023/01/31 06:31:10;;;;;;;2.60;2.40;;;;;;;3.44;100.00;-23912.41;5031081;28;20195;-73
2023/01/31 06:33:36;;;;;;;2.57;2.33;;;;;;;3.03;100.00;-23900.88;5039176;28;20183;-73
2023/01/31 06:36:03;;;;;;;4.13;2.40;;;;;;;3.54;100.00;-23915.25;5016845;28;20188;-75
2023/01/31 06:38:29;;;;;;;4.63;2.73;;;;;;;3.16;100.00;-23904.44;5010600;28;20208;-73
2023/01/31 06:40:54;;;;;;;4.90;2.90;;;;;;;3.49;100.00;-23913.69;5021037;28;20214;-73
2023/01/31 06:43:20;;;;;;;2.33;2.17;;;;;;;3.59;100.00;-23916.53;5012134;28;20215;-71
2023/01/31 06:45:45;;;;;;;7.90;2.97;;;;;;;3.42;100.00;-23911.69;5012315;28;20188;-73
2023/01/31 06:48:11;;;;;;;3.27;2.40;;;;;;;3.67;100.00;-23918.81;5012462;28;20219;-74
2023/01/31 06:50:37;;;;;;;5.43;2.73;;;;;;;4.06;99.44;-23929.78;5011737;28;20176;-73
2023/01/31 06:53:03;;;;;;;5.30;2.97;;;;;;;3.97;98.73;-23927.22;5011519;28;20259;-71
2023/01/31 06:55:28;;;;;;;3.77;2.03;;;;;;;3.90;99.37;-23925.22;5020673;28;20184;-74
2023/01/31 06:57:56;;;;;;;4.73;2.70;;;;;;;4.39;98.90;-23939.19;5011803;28;20664;-75
2023/01/31 07:00:24;;;;;;;4.17;2.73;;;;;;;4.31;98.74;-23936.78;5012233;28;20176;-72
2023/01/31 07:02:50;;;;;;;2.20;2.00;;;;;;;3.94;98.54;-23926.38;5012561;28;20188;-72
2023/01/31 07:05:16;;;;;;;2.83;2.60;;;;;;;4.39;98.44;-23939.19;5012339;28;20265;-73
2023/01/31 07:07:41;;;;;;;3.17;2.87;;;;;;;4.16;97.95;-23932.63;5010841;28;20542;-72
2023/01/31 07:10:08;;;;;;;3.60;2.73;;;;;;;4.71;97.56;-23948.03;5011030;28;20207;-70
2023/01/31 07:12:33;;;;;;;4.00;2.23;;;;;;;4.14;99.70;-23931.94;5011894;28;20224;-73
2023/01/31 07:14:58;;;;;;;3.10;2.10;;;;;;;4.69;98.51;-23947.59;5012190;28;20192;-72
2023/01/31 07:17:24;;;;;;;2.73;2.17;;;;;;;4.40;100.00;-23939.47;5012248;28;20550;-72
2023/01/31 07:19:49;;;;;;;3.83;2.57;;;;;;;4.25;99.38;-23935.06;5012046;28;20294;-73
2023/01/31 07:22:15;;;;;;;4.93;2.80;;;;;;;4.55;99.91;-23943.59;5012285;28;20198;-74
2023/01/31 07:24:40;;;;;;;3.00;2.30;;;;;;;4.37;100.00;-23938.63;5012161;28;20171;-74
2023/01/31 07:27:06;;;;;;;4.27;2.33;;;;;;;4.43;99.60;-23940.34;5011696;28;20176;-72
2023/01/31 07:29:31;;;;;;;3.13;2.37;;;;;;;4.73;99.78;-23948.72;5012057;28;20180;-72
2023/01/31 07:31:56;;;;;;;2.97;2.47;;;;;;;4.54;98.41;-23943.19;5012105;28;20172;-74
2023/01/31 07:34:22;;;;;;;3.03;2.27;;;;;;;4.38;98.38;-23938.91;5011084;28;20553;-73
2023/01/31 07:36:51;;;;;;;4.60;2.63;;;;;;;4.82;98.29;-23951.16;5011911;28;20176;-73
2023/01/31 07:39:16;;;;;;;4.90;2.70;;;;;;;4.62;97.94;-23945.47;5011940;28;20198;-73
2023/01/31 07:41:42;;;;;;;3.60;2.50;;;;;;;4.56;97.44;-23943.88;5011637;28;20243;-72
2023/01/31 07:44:11;;;;;;;2.13;1.93;;;;;;;4.75;96.82;-23949.31;5012823;28;20250;-74
2023/01/31 07:46:36;;;;;;;3.50;1.93;;;;;;;4.72;97.76;-23948.31;5012040;28;20168;-74
2023/01/31 07:49:02;;;;;;;3.33;1.80;;;;;;;4.66;95.53;-23946.75;5011823;28;20277;-74
2023/01/31 07:51:27;;;;;;;3.87;2.00;;;;;;;5.19;95.41;-23961.53;5012015;28;20234;-75
2023/01/31 07:53:53;;;;;;;4.20;2.70;;;;;;;5.25;94.12;-23963.25;5012043;28;20256;-72
2023/01/31 07:56:20;;;;;;;1.80;1.70;;;;;;;4.94;94.47;-23954.56;5011674;28;20208;-75
2023/01/31 07:58:47;;;;;;;2.40;2.20;;;;;;;5.22;94.56;-23962.38;5011855;28;20614;-73
2023/01/31 08:04:01;;;;;;;3.63;2.17;;;;;;;4.95;93.18;-23954.84;5023113;28;20194;-73
2023/01/31 08:06:29;;;;;;;2.87;2.30;;;;;;;5.02;93.75;-23956.69;5015379;28;20172;-73
2023/01/31 08:08:55;;;;;;;5.30;2.43;;;;;;;5.43;93.68;-23968.22;5015631;28;20172;-74
2023/01/31 08:11:20;;;;;;;2.57;2.37;;;;;;;5.49;94.38;-23969.91;5015267;28;20180;-72
2023/01/31 08:13:45;;;;;;;3.93;2.40;;;;;;;5.46;93.90;-23969.06;5016112;28;20186;-72
2023/01/31 08:16:11;;;;;;;3.07;2.47;;;;;;;5.40;94.71;-23967.38;5015323;28;20180;-72
2023/01/31 08:18:37;;;;;;;2.43;2.00;;;;;;;5.19;96.12;-23961.53;5015377;28;20215;-74
2023/01/31 08:21:03;;;;;;;2.27;2.10;;;;;;;5.36;95.79;-23966.22;5015313;28;20230;-74
2023/01/31 08:23:29;;;;;;;2.63;2.27;;;;;;;5.65;94.60;-23974.47;5015305;28;20176;-74
2023/01/31 08:25:59;;;;;;;3.67;2.57;;;;;;;5.69;93.89;-23975.75;5015222;28;20172;-72
2023/01/31 08:28:25;;;;;;;3.67;2.50;;;;;;;5.62;93.47;-23973.63;5015107;28;20200;-74
2023/01/31 08:30:50;;;;;;;11.40;2.53;;;;;;;5.43;93.28;-23968.22;5015475;28;20213;-73
2023/01/31 08:33:15;;;;;;;2.33;2.13;;;;;;;5.78;93.04;-23978.31;5015200;28;20180;-74
2023/01/31 08:35:41;;;;;;;2.23;2.00;;;;;;;5.88;92.82;-23981.00;5015126;28;20219;-71
2023/01/31 08:38:06;;;;;;;2.70;2.17;;;;;;;6.01;92.34;-23984.69;5015119;28;20683;-75
2023/01/31 08:40:31;;;;;;;2.77;2.10;;;;;;;6.09;92.00;-23986.84;5015063;28;20176;-75
2023/01/31 08:43:02;;;;;;;5.60;2.37;;;;;;;5.65;92.89;-23974.47;5015380;28;20172;-74
2023/01/31 08:45:28;;;;;;;4.23;2.23;;;;;;;6.17;91.94;-23989.25;5015199;28;20197;-73
2023/01/31 08:47:55;;;;;;;1.80;1.70;;;;;;;5.87;91.97;-23980.59;5014561;28;20245;-73
2023/01/31 08:50:21;;;;;;;5.37;2.60;;;;;;;6.16;90.73;-23988.81;5014679;28;20172;-73
2023/01/31 08:52:46;;;;;;;2.70;2.23;;;;;;;6.05;91.06;-23985.84;5013408;28;20295;-74
2023/01/31 08:55:12;;;;;;;2.93;2.53;;;;;;;5.99;91.53;-23984.13;5014382;28;20309;-75
2023/01/31 08:57:39;;;;;;;3.40;2.43;;;;;;;6.33;90.99;-23993.50;5014950;28;20171;-73
2023/01/31 09:00:06;;;;;;;4.43;2.90;;;;;;;5.98;90.05;-23983.84;5014792;28;20183;-72
2023/01/31 09:02:32;;;;;;;2.70;2.50;;;;;;;6.07;88.94;-23986.41;5014412;28;20659;-72
2023/01/31 09:04:57;;;;;;;2.50;2.13;;;;;;;5.90;88.12;-23981.56;5014393;28;20172;-72
2023/01/31 09:07:23;;;;;;;4.17;2.70;;;;;;;6.21;89.06;-23990.38;5014624;28;20176;-74
2023/01/31 09:09:48;;;;;;;2.47;1.97;;;;;;;6.02;90.60;-23984.84;5013970;28;20187;-73
2023/01/31 09:12:14;;;;;;;3.03;2.30;;;;;;;5.76;90.50;-23977.59;5014732;28;20223;-72
2023/01/31 09:14:39;;;;;;;7.43;2.20;;;;;;;6.22;88.16;-23990.53;5014015;28;20669;-74
2023/01/31 09:17:06;;;;;;;2.67;2.43;;;;;;;6.21;87.03;-23990.38;5014454;28;20651;-72
2023/01/31 09:19:32;;;;;;;2.43;2.13;;;;;;;6.13;86.57;-23988.13;5014174;28;20246;-75
2023/01/31 09:21:57;;;;;;;3.67;2.70;;;;;;;6.64;86.68;-24002.44;5014245;28;20203;-72
2023/01/31 09:24:22;;;;;;;2.70;2.00;;;;;;;6.33;85.97;-23993.66;5013697;28;20190;-72
2023/01/31 09:26:48;;;;;;;7.37;2.67;;;;;;;7.10;84.81;-24015.22;5014633;28;20169;-72
2023/01/31 09:29:13;;;;;;;6.40;3.00;;;;;;;6.88;85.11;-24009.13;5013904;28;20172;-71
2023/01/31 09:31:39;;;;;;;3.43;2.20;;;;;;;7.20;83.48;-24018.06;5014088;28;20175;-73
2023/01/31 09:34:04;;;;;;;3.50;2.30;;;;;;;7.06;82.29;-24014.22;5013932;28;20176;-76
2023/01/31 09:36:30;;;;;;;2.60;2.20;;;;;;;6.47;84.03;-23997.63;5013531;28;20176;-73
2023/01/31 09:38:56;;;;;;;5.07;2.80;;;;;;;6.66;85.95;-24003.00;5013190;28;20717;-74
2023/01/31 09:41:34;;;;;;;6.57;2.47;;;;;;;6.63;86.86;-24002.03;5013620;28;20230;-73
2023/01/31 09:44:09;;;;;;;3.43;2.33;;;;;;;6.46;86.66;-23997.19;5013842;28;20172;-75
2023/01/31 09:46:43;;;;;;;3.67;2.63;;;;;;;6.82;86.46;-24007.41;5011688;28;20644;-72
2023/01/31 09:49:15;;;;;;;6.40;2.87;;;;;;;6.95;87.62;-24010.97;5022700;28;20188;-74
2023/01/31 09:51:41;;;;;;;2.10;1.90;;;;;;;7.26;84.08;-24019.63;5013998;28;20180;-74
2023/01/31 09:54:20;;;;;;;2.70;2.30;;;;;;;7.39;86.49;-24023.31;5013528;28;20239;-73
2023/01/31 09:56:59;;;;;;;12.33;2.87;;;;;;;7.37;85.01;-24022.72;5000367;28;20184;-73
2023/01/31 09:59:33;;;;;;;4.60;2.50;;;;;;;7.78;83.22;-24034.34;5018141;28;20207;-74
2023/01/31 10:02:16;;;;;;;2.67;2.13;;;;;;;7.59;79.14;-24028.81;5011995;28;20187;-74
2023/01/31 10:04:59;;;;;;;2.03;1.83;;;;;;;7.75;81.04;-24033.50;5011564;28;20187;-72
2023/01/31 10:07:32;;;;;;;3.03;2.33;;;;;;;7.74;79.32;-24033.06;5008432;28;20278;-75
2023/01/31 10:10:21;;;;;;;2.57;2.23;;;;;;;7.86;80.42;-24036.47;5011730;28;20262;-73
2023/01/31 10:12:54;;;;;;;3.77;2.20;;;;;;;7.90;79.28;-24037.75;5010803;28;20235;-75
2023/01/31 10:15:43;;;;;;;3.73;2.30;;;;;;;7.38;79.03;-24023.00;5010290;28;20195;-71
2023/01/31 10:18:15;;;;;;;2.07;1.87;;;;;;;7.38;81.16;-24023.16;5010207;28;20211;-75
2023/01/31 10:21:10;;;;;;;2.70;1.97;;;;;;;7.99;79.44;-24040.31;5009751;28;20221;-73
2023/01/31 10:23:42;;;;;;;1.77;1.67;;;;;;;7.45;79.73;-24025.13;5008548;28;20199;-72
2023/01/31 10:26:15;;;;;;;2.33;1.70;;;;;;;7.32;79.41;-24021.47;5010198;28;20574;-74
2023/01/31 10:28:49;;;;;;;2.07;1.87;;;;;;;7.35;79.01;-24022.16;5019178;28;20271;-73
2023/01/31 10:31:42;;;;;;;2.47;1.97;;;;;;;7.98;79.20;-24040.03;5011354;28;20652;-72
2023/01/31 10:34:24;;;;;;;3.73;2.23;;;;;;;8.13;79.41;-24044.13;5009976;28;20187;-73
2023/01/31 10:37:00;;;;;;;3.40;2.20;;;;;;;7.80;79.18;-24034.78;5010816;28;20188;-73
2023/01/31 10:39:33;;;;;;;3.27;1.50;;;;;;;8.44;78.49;-24052.78;5007435;28;20305;-74
2023/01/31 10:42:07;;;;;;;2.27;2.00;;;;;;;8.27;76.44;-24048.09;5010346;28;20184;-74
2023/01/31 10:44:45;;;;;;;3.33;2.03;;;;;;;8.13;76.30;-24044.00;5010861;28;20180;-74
2023/01/31 10:47:15;;;;;;;3.23;2.17;;;;;;;8.47;76.53;-24053.63;5010347;28;20176;-73
2023/01/31 10:49:47;;;;;;;4.27;1.90;;;;;;;7.46;78.22;-24025.44;5010763;28;20223;-73
2023/01/31 10:52:27;;;;;;;2.77;1.80;;;;;;;7.83;80.15;-24035.78;5011221;28;20283;-75
2023/01/31 10:55:01;;;;;;;2.43;1.90;;;;;;;8.06;79.00;-24042.16;5010369;28;20226;-75
2023/01/31 10:57:27;;;;;;;2.80;2.43;;;;;;;8.06;78.84;-24042.16;5008050;28;20219;-73
2023/01/31 10:59:53;;;;;;;2.87;1.97;;;;;;;8.45;77.76;-24052.91;5010544;28;20299;-74
2023/01/31 11:02:24;;;;;;;2.63;2.10;;;;;;;8.16;78.67;-24044.84;5009987;28;20196;-73
2023/01/31 11:04:52;;;;;;;3.33;2.30;;;;;;;8.03;75.99;-24041.16;5010659;28;20183;-75
2023/01/31 11:07:18;;;;;;;1.90;1.77;;;;;;;7.55;76.34;-24027.97;5011174;28;20360;-72
2023/01/31 11:09:50;;;;;;;3.30;2.43;;;;;;;7.79;77.92;-24034.63;5010298;28;20828;-73
2023/01/31 11:12:16;;;;;;;2.40;2.10;;;;;;;7.91;79.79;-24037.88;5011147;28;20224;-72
2023/01/31 11:14:42;;;;;;;5.63;2.80;;;;;;;7.89;79.29;-24037.47;5009692;28;20196;-74
2023/01/31 11:17:07;;;;;;;3.30;2.33;;;;;;;7.80;79.63;-24034.91;5009817;28;20190;-73
2023/01/31 11:19:49;;;;;;;4.70;2.50;;;;;;;7.94;80.87;-24038.88;5020489;28;20208;-73
2023/01/31 11:22:25;;;;;;;1.70;1.60;;;;;;;7.94;79.92;-24038.88;5012103;28;20187;-72
2023/01/31 11:24:52;;;;;;;2.63;2.20;;;;;;;7.74;80.50;-24033.06;5012185;28;20262;-73
2023/01/31 11:27:32;;;;;;;4.40;2.47;;;;;;;7.71;79.96;-24032.38;5011638;28;20187;-73
2023/01/31 11:29:58;;;;;;;2.43;1.97;;;;;;;7.65;79.46;-24030.66;5012046;28;20172;-72
2023/01/31 11:32:29;;;;;;;2.77;2.23;;;;;;;7.74;80.60;-24033.06;5011926;28;20194;-74
2023/01/31 11:34:58;;;;;;;3.37;1.80;;;;;;;7.58;79.13;-24028.53;5011949;28;20172;-72
2023/01/31 11:37:24;;;;;;;5.83;2.27;;;;;;;7.58;79.96;-24028.53;5015092;28;20233;-73
2023/01/31 11:39:55;;;;;;;3.57;2.07;;;;;;;7.92;80.16;-24038.31;5015676;28;20200;-74
2023/01/31 11:42:20;;;;;;;2.13;1.93;;;;;;;8.00;80.04;-24040.44;5014026;28;20600;-73
2023/01/31 11:45:15;;;;;;;4.10;2.50;;;;;;;7.51;80.00;-24026.69;5022349;28;20188;-73